Decoded Metar for KVTA (NEWARK in OH, USA) (IATA:VTA) | Meteo·Mobile Aviation Weather
aviador You're here:

KVTA Decoded Metar

NEWARK in OH, USA
Report Time2019-01-16 18:26:00
UTC Time2019-01-16 18:45:55
Flight Rules mvfr MVFR
Wind250° at 07 kt
W.Decomp.*RWY 27: 6.8 kt HW 1.7 kt LCW
W.Rank250° ranks 6
Current wind is below 250° avg. (8.5)
Visibility9999 m
Phenomena:N/A
Clouds:Scattered 014 Hf
Overcast 027 Hf
Expected CloudBase > 1,200 ft AGL from Temp-Dew spread
Ceiling2,700 ft
Temp01°C (ISA -12)
Dew Point-2°C (81% RH)
AAT-3.8°C
QNH1023 hPa
Density Alt-876 ft
Elevation879 ft
Report Wrong Elevation
Raw Report
KVTA 161826Z AUTO 25007KT 10SM SCT014 OVC027 01/M02 A3020 RMK AO2
T00061022=

Extra information for KVTA:More info

Metar Taf Metar & Taf Last 4 Metars F.Rules Stats Wind Profile Meteogram Temp Stats Airport Information Weather charts Add Link Nearby VenuesMetar ALERT Operation Metar Decoded Social comments

AIRNAV info for KVTA